PWSweather.com
Personal Weather Stations
Station Observations
NORTHPOLE1
Tombur Subdivision, North Pole, AK 99705

Tombur SubdivisionNorth Pole, AK 99705

Lat: 64.774039, Lon: -147.284862

Elevation: 434

Station Type: Davis Vantage Pro 2

http://kl7ac.com

Latest ConditionsUpdated 10:05:00 AM AKST Friday, Dec 9, 2016
Currently Today's Max Today's Min Today's Average
Temperature -21.9°F-29.9°C -14.7°F-25.9°C -21.9°F-29.9°C -17.6°F-27.6°C
Dew Point -27.1°F-32.8°C -18.8°F-28.2°C -27.1°F-32.8°C -22.3°F-30.2°C
Winds Calm Calm 4.0 mph ENE6.4 kmh ENE - 0.8 mph 1.3 kmh
Wind Gusts -- 7.0 mph11.3 kmh - -
Humidity 76% 81% 76% 78%
Pressure 30.40 in1029.5 mb 30.44 in1030.8 mb 30.38 in1028.8 mb -
Hour Temp Dew Point Humidity Winds Wind Gusts Pressure Precip Precip Rate Daily Precip Total
10:05 AM -21.9°F-29.9°C -27.1°F-32.8°C 76% Calm Calm -- 30.40 in1029.5 mb 0.00 in0.0 mm 0.00 in0.0 mm 0.00 in0.0 mm
10:00 AM -21.9°F-29.9°C -27.1°F-32.8°C 76% Calm Calm -- 30.39 in1029.1 mb 0.00 in0.0 mm 0.00 in0.0 mm 0.00 in0.0 mm
09:55 AM -21.7°F-29.8°C -26.9°F-32.7°C 76% Calm Calm -- 30.40 in1029.5 mb 0.00 in0.0 mm 0.00 in0.0 mm 0.00 in0.0 mm
09:50 AM -21.5°F-29.7°C -26.4°F-32.4°C 77% Calm Calm 1.0 mph1.6 kmh 30.40 in1029.5 mb 0.00 in0.0 mm 0.00 in0.0 mm 0.00 in0.0 mm
09:45 AM -21.4°F-29.7°C -26.3°F-32.4°C 77% Calm Calm 1.0 mph1.6 kmh 30.40 in1029.5 mb 0.00 in0.0 mm 0.00 in0.0 mm 0.00 in0.0 mm
09:40 AM -21.3°F-29.6°C -26.2°F-32.3°C 77% Calm Calm -- 30.40 in1029.5 mb 0.00 in0.0 mm 0.00 in0.0 mm 0.00 in0.0 mm
09:35 AM -21.2°F-29.6°C -26.1°F-32.3°C 77% Calm Calm -- 30.41 in1029.8 mb 0.00 in0.0 mm 0.00 in0.0 mm 0.00 in0.0 mm
09:30 AM -21.1°F-29.5°C -26.0°F-32.2°C 77% Calm Calm -- 30.40 in1029.5 mb 0.00 in0.0 mm 0.00 in0.0 mm 0.00 in0.0 mm
09:25 AM -21.1°F-29.5°C -26.0°F-32.2°C 77% Calm Calm -- 30.40 in1029.5 mb 0.00 in0.0 mm 0.00 in0.0 mm 0.00 in0.0 mm
09:20 AM -21.0°F-29.4°C -25.9°F-32.2°C 77% Calm Calm -- 30.41 in1029.8 mb 0.00 in0.0 mm 0.00 in0.0 mm 0.00 in0.0 mm
09:15 AM -20.9°F-29.4°C -25.9°F-32.2°C 77% Calm Calm -- 30.40 in1029.5 mb 0.00 in0.0 mm 0.00 in0.0 mm 0.00 in0.0 mm
09:10 AM -20.8°F-29.3°C -25.8°F-32.1°C 77% Calm Calm -- 30.40 in1029.5 mb 0.00 in0.0 mm 0.00 in0.0 mm 0.00 in0.0 mm
09:05 AM -20.7°F-29.3°C -25.7°F-32.1°C 77% Calm Calm -- 30.40 in1029.5 mb 0.00 in0.0 mm 0.00 in0.0 mm 0.00 in0.0 mm
09:00 AM -20.6°F-29.2°C -25.6°F-32.0°C 77% Calm Calm -- 30.39 in1029.1 mb 0.00 in0.0 mm 0.00 in0.0 mm 0.00 in0.0 mm
08:55 AM -20.5°F-29.2°C -25.5°F-31.9°C 77% Calm Calm -- 30.39 in1029.1 mb 0.00 in0.0 mm 0.00 in0.0 mm 0.00 in0.0 mm
08:50 AM -20.5°F-29.2°C -25.5°F-31.9°C 77% Calm Calm -- 30.39 in1029.1 mb 0.00 in0.0 mm 0.00 in0.0 mm 0.00 in0.0 mm
08:45 AM -20.4°F-29.1°C -25.4°F-31.9°C 77% Calm Calm -- 30.39 in1029.1 mb 0.00 in0.0 mm 0.00 in0.0 mm 0.00 in0.0 mm
08:40 AM -20.3°F-29.1°C -25.3°F-31.8°C 77% Calm Calm -- 30.39 in1029.1 mb 0.00 in0.0 mm 0.00 in0.0 mm 0.00 in0.0 mm
08:35 AM -20.2°F-29.0°C -25.2°F-31.8°C 77% 1.0 mph ENE1.6 kmh ENE 2.0 mph3.2 kmh 30.39 in1029.1 mb 0.00 in0.0 mm 0.00 in0.0 mm 0.00 in0.0 mm
08:30 AM -20.1°F-28.9°C -25.1°F-31.7°C 77% 1.0 mph ENE1.6 kmh ENE 2.0 mph3.2 kmh 30.39 in1029.1 mb 0.00 in0.0 mm 0.00 in0.0 mm 0.00 in0.0 mm
08:25 AM -20.0°F-28.9°C -25.0°F-31.7°C 77% 1.0 mph NE1.6 kmh NE 2.0 mph3.2 kmh 30.39 in1029.1 mb 0.00 in0.0 mm 0.00 in0.0 mm 0.00 in0.0 mm
08:20 AM -19.8°F-28.8°C -24.8°F-31.6°C 77% Calm Calm 2.0 mph3.2 kmh 30.38 in1028.8 mb 0.00 in0.0 mm 0.00 in0.0 mm 0.00 in0.0 mm
08:15 AM -19.6°F-28.7°C -24.6°F-31.4°C 77% Calm Calm 1.0 mph1.6 kmh 30.38 in1028.8 mb 0.00 in0.0 mm 0.00 in0.0 mm 0.00 in0.0 mm
08:10 AM -19.4°F-28.6°C -24.4°F-31.3°C 77% Calm Calm 1.0 mph1.6 kmh 30.38 in1028.8 mb 0.00 in0.0 mm 0.00 in0.0 mm 0.00 in0.0 mm
08:05 AM -19.2°F-28.4°C -24.2°F-31.2°C 77% Calm Calm 1.0 mph1.6 kmh 30.38 in1028.8 mb 0.00 in0.0 mm 0.00 in0.0 mm 0.00 in0.0 mm
08:00 AM -18.9°F-28.3°C -23.7°F-30.9°C 78% Calm Calm 1.0 mph1.6 kmh 30.39 in1029.1 mb 0.00 in0.0 mm 0.00 in0.0 mm 0.00 in0.0 mm
07:55 AM -18.8°F-28.2°C -23.6°F-30.9°C 78% Calm Calm 1.0 mph1.6 kmh 30.39 in1029.1 mb 0.00 in0.0 mm 0.00 in0.0 mm 0.00 in0.0 mm
07:50 AM -18.7°F-28.2°C -23.5°F-30.8°C 78% Calm Calm -- 30.38 in1028.8 mb 0.00 in0.0 mm 0.00 in0.0 mm 0.00 in0.0 mm
07:45 AM -18.7°F-28.2°C -23.2°F-30.7°C 79% Calm Calm -- 30.39 in1029.1 mb 0.00 in0.0 mm 0.00 in0.0 mm 0.00 in0.0 mm
07:40 AM -18.7°F-28.2°C -23.2°F-30.7°C 79% Calm Calm 1.0 mph1.6 kmh 30.39 in1029.1 mb 0.00 in0.0 mm 0.00 in0.0 mm 0.00 in0.0 mm
07:35 AM -18.7°F-28.2°C -23.2°F-30.7°C 79% Calm Calm 2.0 mph3.2 kmh 30.39 in1029.1 mb 0.00 in0.0 mm 0.00 in0.0 mm 0.00 in0.0 mm
07:30 AM -18.8°F-28.2°C -23.6°F-30.9°C 78% Calm Calm 2.0 mph3.2 kmh 30.39 in1029.1 mb 0.00 in0.0 mm 0.00 in0.0 mm 0.00 in0.0 mm
07:25 AM -18.8°F-28.2°C -23.6°F-30.9°C 78% Calm Calm 2.0 mph3.2 kmh 30.38 in1028.8 mb 0.00 in0.0 mm 0.00 in0.0 mm 0.00 in0.0 mm
07:20 AM -18.7°F-28.2°C -23.5°F-30.8°C 78% Calm Calm 1.0 mph1.6 kmh 30.38 in1028.8 mb 0.00 in0.0 mm 0.00 in0.0 mm 0.00 in0.0 mm
07:15 AM -18.7°F-28.2°C -23.5°F-30.8°C 78% Calm Calm 2.0 mph3.2 kmh 30.38 in1028.8 mb 0.00 in0.0 mm 0.00 in0.0 mm 0.00 in0.0 mm
07:10 AM -18.5°F-28.1°C -23.5°F-30.8°C 77% Calm Calm 2.0 mph3.2 kmh 30.38 in1028.8 mb 0.00 in0.0 mm 0.00 in0.0 mm 0.00 in0.0 mm
07:05 AM -18.3°F-27.9°C -23.1°F-30.6°C 78% Calm Calm 1.0 mph1.6 kmh 30.38 in1028.8 mb 0.00 in0.0 mm 0.00 in0.0 mm 0.00 in0.0 mm
07:00 AM -18.1°F-27.8°C -22.9°F-30.5°C 78% Calm Calm 1.0 mph1.6 kmh 30.38 in1028.8 mb 0.00 in0.0 mm 0.00 in0.0 mm 0.00 in0.0 mm
06:55 AM -17.9°F-27.7°C -22.7°F-30.4°C 78% Calm Calm 1.0 mph1.6 kmh 30.38 in1028.8 mb 0.00 in0.0 mm 0.00 in0.0 mm 0.00 in0.0 mm
06:50 AM -17.8°F-27.7°C -22.6°F-30.3°C 78% Calm Calm 1.0 mph1.6 kmh 30.38 in1028.8 mb 0.00 in0.0 mm 0.00 in0.0 mm 0.00 in0.0 mm
06:45 AM -17.5°F-27.5°C -22.1°F-30.1°C 79% Calm Calm -- 30.38 in1028.8 mb 0.00 in0.0 mm 0.00 in0.0 mm 0.00 in0.0 mm
06:40 AM -17.4°F-27.4°C -22.0°F-30.0°C 79% Calm Calm -- 30.38 in1028.8 mb 0.00 in0.0 mm 0.00 in0.0 mm 0.00 in0.0 mm
06:35 AM -17.2°F-27.3°C -21.8°F-29.9°C 79% Calm Calm 1.0 mph1.6 kmh 30.38 in1028.8 mb 0.00 in0.0 mm 0.00 in0.0 mm 0.00 in0.0 mm
06:30 AM -17.1°F-27.3°C -21.7°F-29.8°C 79% Calm Calm 1.0 mph1.6 kmh 30.38 in1028.8 mb 0.00 in0.0 mm 0.00 in0.0 mm 0.00 in0.0 mm
06:25 AM -17.0°F-27.2°C -21.6°F-29.8°C 79% Calm Calm 1.0 mph1.6 kmh 30.38 in1028.8 mb 0.00 in0.0 mm 0.00 in0.0 mm 0.00 in0.0 mm
06:20 AM -16.9°F-27.2°C -21.5°F-29.7°C 79% Calm Calm 2.0 mph3.2 kmh 30.38 in1028.8 mb 0.00 in0.0 mm 0.00 in0.0 mm 0.00 in0.0 mm
06:15 AM -16.8°F-27.1°C -21.4°F-29.7°C 79% 1.0 mph NE1.6 kmh NE 3.0 mph4.8 kmh 30.38 in1028.8 mb 0.00 in0.0 mm 0.00 in0.0 mm 0.00 in0.0 mm
06:10 AM -16.7°F-27.1°C -21.3°F-29.6°C 79% 1.0 mph NE1.6 kmh NE 3.0 mph4.8 kmh 30.38 in1028.8 mb 0.00 in0.0 mm 0.00 in0.0 mm 0.00 in0.0 mm
06:05 AM -16.7°F-27.1°C -21.0°F-29.4°C 80% 1.0 mph ENE1.6 kmh ENE 3.0 mph4.8 kmh 30.39 in1029.1 mb 0.00 in0.0 mm 0.00 in0.0 mm 0.00 in0.0 mm
06:00 AM -16.6°F-27.0°C -20.9°F-29.4°C 80% 1.0 mph ENE1.6 kmh ENE 4.0 mph6.4 kmh 30.38 in1028.8 mb 0.00 in0.0 mm 0.00 in0.0 mm 0.00 in0.0 mm
05:55 AM -16.7°F-27.1°C -21.0°F-29.4°C 80% 1.0 mph E1.6 kmh E 4.0 mph6.4 kmh 30.39 in1029.1 mb 0.00 in0.0 mm 0.00 in0.0 mm 0.00 in0.0 mm
05:50 AM -16.7°F-27.1°C -21.0°F-29.4°C 80% 1.0 mph E1.6 kmh E 4.0 mph6.4 kmh 30.39 in1029.1 mb 0.00 in0.0 mm 0.00 in0.0 mm 0.00 in0.0 mm
05:45 AM -16.8°F-27.1°C -21.1°F-29.5°C 80% 2.0 mph E3.2 kmh E 4.0 mph6.4 kmh 30.39 in1029.1 mb 0.00 in0.0 mm 0.00 in0.0 mm 0.00 in0.0 mm
05:40 AM -16.9°F-27.2°C -21.2°F-29.6°C 80% 2.0 mph E3.2 kmh E 4.0 mph6.4 kmh 30.39 in1029.1 mb 0.00 in0.0 mm 0.00 in0.0 mm 0.00 in0.0 mm
05:35 AM -17.0°F-27.2°C -21.3°F-29.6°C 80% 3.0 mph E4.8 kmh E 6.0 mph9.7 kmh 30.39 in1029.1 mb 0.00 in0.0 mm 0.00 in0.0 mm 0.00 in0.0 mm
05:30 AM -17.2°F-27.3°C -21.5°F-29.7°C 80% 3.0 mph ENE4.8 kmh ENE 6.0 mph9.7 kmh 30.39 in1029.1 mb 0.00 in0.0 mm 0.00 in0.0 mm 0.00 in0.0 mm
05:25 AM -17.4°F-27.4°C -21.7°F-29.8°C 80% 2.0 mph ENE3.2 kmh ENE 6.0 mph9.7 kmh 30.39 in1029.1 mb 0.00 in0.0 mm 0.00 in0.0 mm 0.00 in0.0 mm
05:20 AM -17.6°F-27.6°C -21.9°F-29.9°C 80% 2.0 mph ENE3.2 kmh ENE 4.0 mph6.4 kmh 30.39 in1029.1 mb 0.00 in0.0 mm 0.00 in0.0 mm 0.00 in0.0 mm
05:15 AM -18.0°F-27.8°C -22.5°F-30.3°C 79% 3.0 mph NE4.8 kmh NE 7.0 mph11.3 kmh 30.39 in1029.1 mb 0.00 in0.0 mm 0.00 in0.0 mm 0.00 in0.0 mm
05:10 AM -18.2°F-27.9°C -22.7°F-30.4°C 79% 3.0 mph NE4.8 kmh NE 7.0 mph11.3 kmh 30.39 in1029.1 mb 0.00 in0.0 mm 0.00 in0.0 mm 0.00 in0.0 mm
05:05 AM -18.3°F-27.9°C -22.8°F-30.4°C 79% 3.0 mph ENE4.8 kmh ENE 6.0 mph9.7 kmh 30.39 in1029.1 mb 0.00 in0.0 mm 0.00 in0.0 mm 0.00 in0.0 mm
05:00 AM -18.3°F-27.9°C -23.1°F-30.6°C 78% 3.0 mph ENE4.8 kmh ENE 6.0 mph9.7 kmh 30.39 in1029.1 mb 0.00 in0.0 mm 0.00 in0.0 mm 0.00 in0.0 mm
04:55 AM -18.3°F-27.9°C -23.1°F-30.6°C 78% 3.0 mph NE4.8 kmh NE 7.0 mph11.3 kmh 30.39 in1029.1 mb 0.00 in0.0 mm 0.00 in0.0 mm 0.00 in0.0 mm
04:50 AM -18.3°F-27.9°C -23.1°F-30.6°C 78% 4.0 mph ENE6.4 kmh ENE 7.0 mph11.3 kmh 30.39 in1029.1 mb 0.00 in0.0 mm 0.00 in0.0 mm 0.00 in0.0 mm
04:45 AM -18.3°F-27.9°C -23.1°F-30.6°C 78% 3.0 mph ENE4.8 kmh ENE 6.0 mph9.7 kmh 30.40 in1029.5 mb 0.00 in0.0 mm 0.00 in0.0 mm 0.00 in0.0 mm
04:40 AM -18.3°F-27.9°C -23.1°F-30.6°C 78% 3.0 mph ENE4.8 kmh ENE 5.0 mph8.0 kmh 30.39 in1029.1 mb 0.00 in0.0 mm 0.00 in0.0 mm 0.00 in0.0 mm
04:35 AM -18.2°F-27.9°C -23.0°F-30.6°C 78% 2.0 mph ENE3.2 kmh ENE 6.0 mph9.7 kmh 30.40 in1029.5 mb 0.00 in0.0 mm 0.00 in0.0 mm 0.00 in0.0 mm
04:30 AM -18.1°F-27.8°C -22.9°F-30.5°C 78% 2.0 mph NE3.2 kmh NE 6.0 mph9.7 kmh 30.40 in1029.5 mb 0.00 in0.0 mm 0.00 in0.0 mm 0.00 in0.0 mm
04:25 AM -18.0°F-27.8°C -22.8°F-30.4°C 78% 1.0 mph NE1.6 kmh NE 3.0 mph4.8 kmh 30.40 in1029.5 mb 0.00 in0.0 mm 0.00 in0.0 mm 0.00 in0.0 mm
04:20 AM -17.9°F-27.7°C -22.4°F-30.2°C 79% 1.0 mph NE1.6 kmh NE 3.0 mph4.8 kmh 30.40 in1029.5 mb 0.00 in0.0 mm 0.00 in0.0 mm 0.00 in0.0 mm
04:15 AM -17.8°F-27.7°C -22.3°F-30.2°C 79% Calm Calm 2.0 mph3.2 kmh 30.40 in1029.5 mb 0.00 in0.0 mm 0.00 in0.0 mm 0.00 in0.0 mm
04:10 AM -17.9°F-27.7°C -22.4°F-30.2°C 79% Calm Calm 2.0 mph3.2 kmh 30.40 in1029.5 mb 0.00 in0.0 mm 0.00 in0.0 mm 0.00 in0.0 mm
04:05 AM -17.9°F-27.7°C -22.4°F-30.2°C 79% Calm Calm 2.0 mph3.2 kmh 30.40 in1029.5 mb 0.00 in0.0 mm 0.00 in0.0 mm 0.00 in0.0 mm
04:00 AM -17.9°F-27.7°C -22.7°F-30.4°C 78% 1.0 mph NE1.6 kmh NE 3.0 mph4.8 kmh 30.41 in1029.8 mb 0.00 in0.0 mm 0.00 in0.0 mm 0.00 in0.0 mm
03:55 AM -17.9°F-27.7°C -22.7°F-30.4°C 78% 2.0 mph NE3.2 kmh NE 6.0 mph9.7 kmh 30.41 in1029.8 mb 0.00 in0.0 mm 0.00 in0.0 mm 0.00 in0.0 mm
03:50 AM -17.9°F-27.7°C -22.7°F-30.4°C 78% 2.0 mph NE3.2 kmh NE 6.0 mph9.7 kmh 30.41 in1029.8 mb 0.00 in0.0 mm 0.00 in0.0 mm 0.00 in0.0 mm
03:45 AM -17.8°F-27.7°C -22.6°F-30.3°C 78% 1.0 mph NE1.6 kmh NE 4.0 mph6.4 kmh 30.41 in1029.8 mb 0.00 in0.0 mm 0.00 in0.0 mm 0.00 in0.0 mm
03:40 AM -17.7°F-27.6°C -22.5°F-30.3°C 78% 1.0 mph NE1.6 kmh NE 2.0 mph3.2 kmh 30.41 in1029.8 mb 0.00 in0.0 mm 0.00 in0.0 mm 0.00 in0.0 mm
03:35 AM -17.6°F-27.6°C -22.4°F-30.2°C 78% Calm Calm 1.0 mph1.6 kmh 30.41 in1029.8 mb 0.00 in0.0 mm 0.00 in0.0 mm 0.00 in0.0 mm
03:30 AM -17.5°F-27.5°C -22.3°F-30.2°C 78% Calm Calm 1.0 mph1.6 kmh 30.41 in1029.8 mb 0.00 in0.0 mm 0.00 in0.0 mm 0.00 in0.0 mm
03:25 AM -17.4°F-27.4°C -22.2°F-30.1°C 78% Calm Calm 1.0 mph1.6 kmh 30.41 in1029.8 mb 0.00 in0.0 mm 0.00 in0.0 mm 0.00 in0.0 mm
03:20 AM -17.2°F-27.3°C -22.0°F-30.0°C 78% Calm Calm -- 30.41 in1029.8 mb 0.00 in0.0 mm 0.00 in0.0 mm 0.00 in0.0 mm
03:15 AM -17.0°F-27.2°C -21.8°F-29.9°C 78% Calm Calm 1.0 mph1.6 kmh 30.41 in1029.8 mb 0.00 in0.0 mm 0.00 in0.0 mm 0.00 in0.0 mm
03:10 AM -16.9°F-27.2°C -21.7°F-29.8°C 78% Calm Calm 2.0 mph3.2 kmh 30.42 in1030.1 mb 0.00 in0.0 mm 0.00 in0.0 mm 0.00 in0.0 mm
03:05 AM -16.7°F-27.1°C -21.5°F-29.7°C 78% Calm Calm 2.0 mph3.2 kmh 30.41 in1029.8 mb 0.00 in0.0 mm 0.00 in0.0 mm 0.00 in0.0 mm
03:00 AM -16.5°F-26.9°C -21.3°F-29.6°C 78% Calm Calm -- 30.41 in1029.8 mb 0.00 in0.0 mm 0.00 in0.0 mm 0.00 in0.0 mm
02:55 AM -16.4°F-26.9°C -21.2°F-29.6°C 78% Calm Calm 1.0 mph1.6 kmh 30.41 in1029.8 mb 0.00 in0.0 mm 0.00 in0.0 mm 0.00 in0.0 mm
02:50 AM -16.3°F-26.8°C -21.1°F-29.5°C 78% Calm Calm 1.0 mph1.6 kmh 30.41 in1029.8 mb 0.00 in0.0 mm 0.00 in0.0 mm 0.00 in0.0 mm
02:45 AM -16.1°F-26.7°C -20.9°F-29.4°C 78% Calm Calm 1.0 mph1.6 kmh 30.42 in1030.1 mb 0.00 in0.0 mm 0.00 in0.0 mm 0.00 in0.0 mm
02:40 AM -15.8°F-26.6°C -20.6°F-29.2°C 78% 1.0 mph NNE1.6 kmh NNE 3.0 mph4.8 kmh 30.41 in1029.8 mb 0.00 in0.0 mm 0.00 in0.0 mm 0.00 in0.0 mm
02:35 AM -15.4°F-26.3°C -20.0°F-28.9°C 79% 1.0 mph NNE1.6 kmh NNE 3.0 mph4.8 kmh 30.41 in1029.8 mb 0.00 in0.0 mm 0.00 in0.0 mm 0.00 in0.0 mm
02:30 AM -15.3°F-26.3°C -19.9°F-28.8°C 79% Calm Calm 3.0 mph4.8 kmh 30.41 in1029.8 mb 0.00 in0.0 mm 0.00 in0.0 mm 0.00 in0.0 mm
02:25 AM -15.2°F-26.2°C -19.8°F-28.8°C 79% Calm Calm -- 30.41 in1029.8 mb 0.00 in0.0 mm 0.00 in0.0 mm 0.00 in0.0 mm
02:20 AM -15.1°F-26.2°C -19.5°F-28.6°C 80% Calm Calm -- 30.42 in1030.1 mb 0.00 in0.0 mm 0.00 in0.0 mm 0.00 in0.0 mm
02:15 AM -15.0°F-26.1°C -19.4°F-28.6°C 80% Calm Calm 2.0 mph3.2 kmh 30.42 in1030.1 mb 0.00 in0.0 mm 0.00 in0.0 mm 0.00 in0.0 mm
02:10 AM -14.9°F-26.1°C -19.3°F-28.5°C 80% Calm Calm 2.0 mph3.2 kmh 30.42 in1030.1 mb 0.00 in0.0 mm 0.00 in0.0 mm 0.00 in0.0 mm
02:05 AM -14.8°F-26.0°C -19.2°F-28.4°C 80% Calm Calm 2.0 mph3.2 kmh 30.42 in1030.1 mb 0.00 in0.0 mm 0.00 in0.0 mm 0.00 in0.0 mm
02:00 AM -14.7°F-25.9°C -19.1°F-28.4°C 80% 1.0 mph NE1.6 kmh NE 3.0 mph4.8 kmh 30.41 in1029.8 mb 0.00 in0.0 mm 0.00 in0.0 mm 0.00 in0.0 mm
01:55 AM -14.7°F-25.9°C -19.1°F-28.4°C 80% 1.0 mph NE1.6 kmh NE 3.0 mph4.8 kmh 30.41 in1029.8 mb 0.00 in0.0 mm 0.00 in0.0 mm 0.00 in0.0 mm
01:50 AM -14.7°F-25.9°C -19.1°F-28.4°C 80% 1.0 mph NE1.6 kmh NE 2.0 mph3.2 kmh 30.41 in1029.8 mb 0.00 in0.0 mm 0.00 in0.0 mm 0.00 in0.0 mm
01:45 AM -14.7°F-25.9°C -19.1°F-28.4°C 80% 1.0 mph ENE1.6 kmh ENE 2.0 mph3.2 kmh 30.42 in1030.1 mb 0.00 in0.0 mm 0.00 in0.0 mm 0.00 in0.0 mm
01:40 AM -14.7°F-25.9°C -19.1°F-28.4°C 80% 1.0 mph NE1.6 kmh NE 3.0 mph4.8 kmh 30.42 in1030.1 mb 0.00 in0.0 mm 0.00 in0.0 mm 0.00 in0.0 mm
01:35 AM -14.7°F-25.9°C -19.1°F-28.4°C 80% 2.0 mph NE3.2 kmh NE 6.0 mph9.7 kmh 30.42 in1030.1 mb 0.00 in0.0 mm 0.00 in0.0 mm 0.00 in0.0 mm
01:30 AM -14.7°F-25.9°C -19.1°F-28.4°C 80% 2.0 mph NNE3.2 kmh NNE 6.0 mph9.7 kmh 30.42 in1030.1 mb 0.00 in0.0 mm 0.00 in0.0 mm 0.00 in0.0 mm
01:25 AM -14.7°F-25.9°C -18.8°F-28.2°C 81% 2.0 mph NNE3.2 kmh NNE 4.0 mph6.4 kmh 30.42 in1030.1 mb 0.00 in0.0 mm 0.00 in0.0 mm 0.00 in0.0 mm
01:20 AM -14.8°F-26.0°C -18.9°F-28.3°C 81% 1.0 mph NNE1.6 kmh NNE 4.0 mph6.4 kmh 30.42 in1030.1 mb 0.00 in0.0 mm 0.00 in0.0 mm 0.00 in0.0 mm
01:15 AM -14.9°F-26.1°C -19.0°F-28.3°C 81% 1.0 mph NE1.6 kmh NE 3.0 mph4.8 kmh 30.43 in1030.5 mb 0.00 in0.0 mm 0.00 in0.0 mm 0.00 in0.0 mm
01:10 AM -15.1°F-26.2°C -19.5°F-28.6°C 80% 1.0 mph NE1.6 kmh NE 4.0 mph6.4 kmh 30.43 in1030.5 mb 0.00 in0.0 mm 0.00 in0.0 mm 0.00 in0.0 mm
01:05 AM -15.2°F-26.2°C -19.6°F-28.7°C 80% 2.0 mph NE3.2 kmh NE 4.0 mph6.4 kmh 30.43 in1030.5 mb 0.00 in0.0 mm 0.00 in0.0 mm 0.00 in0.0 mm
01:00 AM -15.3°F-26.3°C -19.9°F-28.8°C 79% 2.0 mph NE3.2 kmh NE 5.0 mph8.0 kmh 30.43 in1030.5 mb 0.00 in0.0 mm 0.00 in0.0 mm 0.00 in0.0 mm
12:55 AM -15.3°F-26.3°C -19.9°F-28.8°C 79% 2.0 mph NE3.2 kmh NE 6.0 mph9.7 kmh 30.43 in1030.5 mb 0.00 in0.0 mm 0.00 in0.0 mm 0.00 in0.0 mm
12:50 AM -15.2°F-26.2°C -19.8°F-28.8°C 79% 2.0 mph NE3.2 kmh NE 6.0 mph9.7 kmh 30.44 in1030.8 mb 0.00 in0.0 mm 0.00 in0.0 mm 0.00 in0.0 mm
12:45 AM -15.2°F-26.2°C -19.8°F-28.8°C 79% 2.0 mph NE3.2 kmh NE 5.0 mph8.0 kmh 30.44 in1030.8 mb 0.00 in0.0 mm 0.00 in0.0 mm 0.00 in0.0 mm
12:40 AM -15.2°F-26.2°C -19.8°F-28.8°C 79% 2.0 mph NE3.2 kmh NE 5.0 mph8.0 kmh 30.44 in1030.8 mb 0.00 in0.0 mm 0.00 in0.0 mm 0.00 in0.0 mm
12:35 AM -15.2°F-26.2°C -19.8°F-28.8°C 79% 2.0 mph NE3.2 kmh NE 4.0 mph6.4 kmh 30.44 in1030.8 mb 0.00 in0.0 mm 0.00 in0.0 mm 0.00 in0.0 mm
12:30 AM -15.2°F-26.2°C -19.8°F-28.8°C 79% 2.0 mph NE3.2 kmh NE 4.0 mph6.4 kmh 30.44 in1030.8 mb 0.00 in0.0 mm 0.00 in0.0 mm 0.00 in0.0 mm
12:25 AM -15.3°F-26.3°C -19.9°F-28.8°C 79% 2.0 mph NE3.2 kmh NE 4.0 mph6.4 kmh 30.44 in1030.8 mb 0.00 in0.0 mm 0.00 in0.0 mm 0.00 in0.0 mm
12:20 AM -15.3°F-26.3°C -19.9°F-28.8°C 79% 1.0 mph NE1.6 kmh NE 4.0 mph6.4 kmh 30.44 in1030.8 mb 0.00 in0.0 mm 0.00 in0.0 mm 0.00 in0.0 mm
12:15 AM -15.3°F-26.3°C -19.9°F-28.8°C 79% Calm Calm 3.0 mph4.8 kmh 30.44 in1030.8 mb 0.00 in0.0 mm 0.00 in0.0 mm 0.00 in0.0 mm
12:10 AM -15.3°F-26.3°C -19.9°F-28.8°C 79% Calm Calm 1.0 mph1.6 kmh 30.44 in1030.8 mb 0.00 in0.0 mm 0.00 in0.0 mm 0.00 in0.0 mm
12:05 AM -15.3°F-26.3°C -20.1°F-28.9°C 78% Calm Calm 1.0 mph1.6 kmh 30.44 in1030.8 mb 0.00 in0.0 mm 0.00 in0.0 mm 0.00 in0.0 mm
12:00 AM -15.2°F-26.2°C -20.1°F-28.9°C 78% Calm Calm 2.0 mph3.2 kmh 30.44 in1030.8 mb 0.00 in0.0 mm 0.00 in0.0 mm 0.00 in0.0 mm